Time,TemperatureF,DewpointF,PressureIn,WindDirection,WindDirectionDegrees,WindSpeedMPH,WindSpeedGustMPH,Humidity,HourlyPrecipIn,Conditions,Clouds,dailyrainin,SolarRadiationWatts/m^2,SoftwareType,DateUTC
2013-02-06 00:01:00,-3.0,-9.0,-100.00,WNW,293,2.0,4.0,76,0.00,,,0.01,0.000000,,2013-02-06 06:01:00,
2013-02-06 00:22:00,-2.0,-8.0,-100.00,WSW,247,2.0,4.0,75,-99.99,,,0.01,0.000000,,2013-02-06 06:22:00,
2013-02-06 00:32:00,-2.0,-8.0,-100.00,WSW,247,2.0,4.0,75,-99.99,,,0.01,0.000000,,2013-02-06 06:32:00,
2013-02-06 01:32:00,-2.0,-9.0,-100.00,WSW,255,2.0,4.0,72,-99.99,,,0.01,0.000000,,2013-02-06 07:32:00,
2013-02-06 02:32:00,-1.0,-8.0,-100.00,SSW,200,1.0,3.0,71,-99.99,,,0.01,0.000000,,2013-02-06 08:32:00,
2013-02-06 02:42:00,-1.0,-8.0,-100.00,SSW,200,1.0,3.0,71,-99.99,,,0.01,0.000000,,2013-02-06 08:42:00,
2013-02-06 02:53:00,-1.0,-8.0,-100.00,SSW,200,1.0,3.0,71,-99.99,,,0.01,0.000000,,2013-02-06 08:53:00,
2013-02-06 03:01:00,-1.0,-8.0,-100.00,SSW,200,1.0,3.0,71,-99.99,,,0.01,0.000000,,2013-02-06 09:01:00,
2013-02-06 03:32:00,0.0,-7.0,-100.00,SSW,211,1.0,2.0,70,0.00,,,0.01,0.000000,,2013-02-06 09:32:00,
2013-02-06 03:42:00,0.0,-7.0,-100.00,SSW,211,1.0,2.0,70,0.00,,,0.01,0.000000,,2013-02-06 09:42:00,
2013-02-06 03:52:00,0.0,-7.0,-100.00,SSW,211,1.0,2.0,70,0.00,,,0.01,0.000000,,2013-02-06 09:52:00,
2013-02-06 04:01:00,0.0,-7.0,-100.00,SSW,211,1.0,2.0,70,0.00,,,0.01,0.000000,,2013-02-06 10:01:00,
2013-02-06 04:32:00,1.0,-7.0,-100.00,South,181,2.0,3.0,69,0.00,,,0.01,0.000000,,2013-02-06 10:32:00,
2013-02-06 04:42:00,1.0,-7.0,-100.00,South,181,2.0,3.0,69,0.00,,,0.01,0.000000,,2013-02-06 10:42:00,
2013-02-06 04:52:00,1.0,-7.0,-100.00,South,181,2.0,3.0,69,0.00,,,0.01,0.000000,,2013-02-06 10:52:00,
2013-02-06 05:01:00,1.0,-7.0,-100.00,South,181,2.0,3.0,69,0.00,,,0.01,0.000000,,2013-02-06 11:01:00,
2013-02-06 05:32:00,0.0,-7.0,-100.00,South,171,3.0,4.0,70,0.00,,,0.01,0.000000,,2013-02-06 11:32:00,
2013-02-06 05:42:00,0.0,-7.0,-100.00,South,171,3.0,4.0,70,0.00,,,0.01,0.000000,,2013-02-06 11:42:00,
2013-02-06 05:53:00,0.0,-7.0,-100.00,South,171,3.0,4.0,70,0.00,,,0.01,0.000000,,2013-02-06 11:53:00,
2013-02-06 06:02:00,0.0,-7.0,-100.00,South,171,3.0,4.0,70,0.00,,,0.01,0.000000,,2013-02-06 12:02:00,
2013-02-06 06:32:00,1.0,-7.0,-100.00,South,170,3.0,5.0,69,0.00,,,0.01,0.000000,,2013-02-06 12:32:00,
2013-02-06 06:42:00,1.0,-7.0,-100.00,South,170,3.0,5.0,69,0.00,,,0.01,0.000000,,2013-02-06 12:42:00,
2013-02-06 06:52:00,1.0,-7.0,-100.00,South,170,3.0,5.0,69,0.00,,,0.01,0.000000,,2013-02-06 12:52:00,
2013-02-06 07:01:00,1.0,-7.0,-100.00,South,170,3.0,5.0,69,0.00,,,0.01,0.000000,,2013-02-06 13:01:00,
2013-02-06 07:32:00,2.0,-5.0,-100.00,East,98,3.0,5.0,71,0.00,,,0.01,0.000000,,2013-02-06 13:32:00,
2013-02-06 07:42:00,2.0,-5.0,-100.00,East,98,3.0,5.0,71,0.00,,,0.01,0.000000,,2013-02-06 13:42:00,
2013-02-06 07:52:00,2.0,-5.0,-100.00,East,98,3.0,5.0,71,0.00,,,0.01,0.000000,,2013-02-06 13:52:00,
2013-02-06 08:02:00,2.0,-5.0,-100.00,East,98,3.0,5.0,71,0.00,,,0.01,0.000000,,2013-02-06 14:02:00,
2013-02-06 08:32:00,3.0,-5.0,-100.00,SSE,167,3.0,7.0,68,0.00,,,0.01,1.000000,,2013-02-06 14:32:00,
2013-02-06 08:42:00,3.0,-5.0,-100.00,SSE,167,3.0,7.0,68,0.00,,,0.01,1.000000,,2013-02-06 14:42:00,
2013-02-06 08:52:00,3.0,-5.0,-100.00,SSE,167,3.0,7.0,68,0.00,,,0.01,1.000000,,2013-02-06 14:52:00,
2013-02-06 09:01:00,3.0,-5.0,-100.00,SSE,167,3.0,7.0,68,0.00,,,0.01,1.000000,,2013-02-06 15:01:00,
2013-02-06 09:32:00,7.0,-2.0,-100.00,SSE,163,4.0,7.0,65,0.00,,,0.01,17.000000,,2013-02-06 15:32:00,
2013-02-06 09:42:00,7.0,-2.0,-100.00,SSE,163,4.0,7.0,65,0.00,,,0.01,17.000000,,2013-02-06 15:42:00,
2013-02-06 09:52:00,7.0,-2.0,-100.00,SSE,163,4.0,7.0,65,0.00,,,0.01,17.000000,,2013-02-06 15:52:00,
2013-02-06 10:01:00,7.0,-2.0,-100.00,SSE,163,4.0,7.0,65,0.00,,,0.01,17.000000,,2013-02-06 16:01:00,
2013-02-06 10:22:00,12.0,0.0,-100.00,SSE,168,4.0,7.0,59,0.00,,,0.01,42.000000,,2013-02-06 16:22:00,
2013-02-06 10:32:00,12.0,0.0,-100.00,SSE,168,4.0,7.0,59,0.00,,,0.01,42.000000,,2013-02-06 16:32:00,
2013-02-06 10:42:00,12.0,0.0,-100.00,SSE,168,4.0,7.0,59,0.00,,,0.01,42.000000,,2013-02-06 16:42:00,
2013-02-06 10:52:00,12.0,0.0,-100.00,SSE,168,4.0,7.0,59,0.00,,,0.01,42.000000,,2013-02-06 16:52:00,
2013-02-06 11:02:00,12.0,0.0,-100.00,SSE,168,4.0,7.0,59,0.00,,,0.01,42.000000,,2013-02-06 17:02:00,
2013-02-06 11:22:00,16.0,2.0,-100.00,SE,132,3.0,7.0,52,0.00,,,0.01,75.000000,,2013-02-06 17:22:00,
2013-02-06 11:32:00,16.0,2.0,-100.00,SE,132,3.0,7.0,52,0.00,,,0.01,75.000000,,2013-02-06 17:32:00,
2013-02-06 11:42:00,16.0,2.0,-100.00,SE,132,3.0,7.0,52,0.00,,,0.01,75.000000,,2013-02-06 17:42:00,
2013-02-06 11:52:00,16.0,2.0,-100.00,SE,132,3.0,7.0,52,0.00,,,0.01,75.000000,,2013-02-06 17:52:00,
2013-02-06 12:01:00,16.0,2.0,-100.00,SE,132,3.0,7.0,52,0.00,,,0.01,75.000000,,2013-02-06 18:01:00,
2013-02-06 12:23:00,19.0,3.0,-100.00,SE,144,3.0,6.0,50,0.00,,,0.00,110.000000,,2013-02-06 18:23:00,
2013-02-06 12:33:00,19.0,3.0,-100.00,SE,144,3.0,6.0,50,0.00,,,0.00,110.000000,,2013-02-06 18:33:00,
2013-02-06 12:42:00,19.0,3.0,-100.00,SE,144,3.0,6.0,50,0.00,,,0.00,110.000000,,2013-02-06 18:42:00,
2013-02-06 12:52:00,19.0,3.0,-100.00,SE,144,3.0,6.0,50,0.00,,,0.00,110.000000,,2013-02-06 18:52:00,
2013-02-06 13:01:00,19.0,3.0,-100.00,SE,144,3.0,6.0,50,0.00,,,0.00,110.000000,,2013-02-06 19:01:00,
2013-02-06 13:32:00,18.0,4.0,-100.00,ESE,117,4.0,6.0,53,0.00,,,0.00,78.000000,,2013-02-06 19:32:00,
2013-02-06 13:42:00,18.0,4.0,-100.00,ESE,117,4.0,6.0,53,0.00,,,0.00,78.000000,,2013-02-06 19:42:00,
2013-02-06 13:52:00,18.0,4.0,-100.00,ESE,117,4.0,6.0,53,0.00,,,0.00,78.000000,,2013-02-06 19:52:00,
2013-02-06 14:01:00,18.0,4.0,-100.00,ESE,117,4.0,6.0,53,0.00,,,0.00,78.000000,,2013-02-06 20:01:00,
2013-02-06 14:32:00,18.0,7.0,-100.00,ESE,114,4.0,7.0,62,0.00,,,0.00,55.000000,,2013-02-06 20:32:00,
2013-02-06 14:42:00,18.0,7.0,-100.00,ESE,114,4.0,7.0,62,0.00,,,0.00,55.000000,,2013-02-06 20:42:00,
2013-02-06 14:52:00,18.0,7.0,-100.00,ESE,114,4.0,7.0,62,0.00,,,0.00,55.000000,,2013-02-06 20:52:00,
2013-02-06 15:01:00,18.0,7.0,-100.00,ESE,114,4.0,7.0,62,0.00,,,0.00,55.000000,,2013-02-06 21:01:00,
2013-02-06 15:32:00,17.0,10.0,-100.00,ESE,105,5.0,7.0,74,0.00,,,0.00,38.000000,,2013-02-06 21:32:00,
2013-02-06 15:42:00,17.0,10.0,-100.00,ESE,105,5.0,7.0,74,0.00,,,0.00,38.000000,,2013-02-06 21:42:00,
2013-02-06 15:52:00,17.0,10.0,-100.00,ESE,105,5.0,7.0,74,0.00,,,0.00,38.000000,,2013-02-06 21:52:00,
2013-02-06 16:01:00,17.0,10.0,-100.00,ESE,105,5.0,7.0,74,0.00,,,0.00,38.000000,,2013-02-06 22:01:00,
2013-02-06 16:22:00,17.0,12.0,-100.00,ENE,71,4.0,8.0,80,0.00,,,0.00,31.000000,,2013-02-06 22:22:00,
2013-02-06 16:32:00,17.0,12.0,-100.00,ENE,71,4.0,8.0,80,0.00,,,0.00,31.000000,,2013-02-06 22:32:00,
2013-02-06 16:42:00,17.0,12.0,-100.00,ENE,71,4.0,8.0,80,0.00,,,0.00,31.000000,,2013-02-06 22:42:00,
2013-02-06 16:52:00,17.0,12.0,-100.00,ENE,71,4.0,8.0,80,0.00,,,0.00,31.000000,,2013-02-06 22:52:00,
2013-02-06 17:01:00,17.0,12.0,-100.00,ENE,71,4.0,8.0,80,0.00,,,0.00,31.000000,,2013-02-06 23:01:00,
2013-02-06 17:32:00,16.0,12.0,-100.00,East,82,4.0,8.0,84,0.00,,,-99.99,11.000000,,2013-02-06 23:32:00,
2013-02-06 17:42:00,16.0,12.0,-100.00,East,82,4.0,8.0,84,0.00,,,-99.99,11.000000,,2013-02-06 23:42:00,
2013-02-06 17:52:00,16.0,12.0,-100.00,East,82,4.0,8.0,84,0.00,,,-99.99,11.000000,,2013-02-06 23:52:00,
2013-02-06 18:01:00,16.0,12.0,-100.00,East,82,4.0,8.0,84,0.00,,,-99.99,11.000000,,2013-02-07 00:01:00,
2013-02-06 18:32:00,16.0,13.0,-100.00,ENE,77,3.0,6.0,87,0.00,,,0.00,0.000000,,2013-02-07 00:32:00,
2013-02-06 18:42:00,16.0,13.0,-100.00,ENE,77,3.0,6.0,87,0.00,,,0.00,0.000000,,2013-02-07 00:42:00,
2013-02-06 18:52:00,16.0,13.0,-100.00,ENE,77,3.0,6.0,87,0.00,,,0.00,0.000000,,2013-02-07 00:52:00,
2013-02-06 19:01:00,16.0,13.0,-100.00,ENE,77,3.0,6.0,87,0.00,,,0.00,0.000000,,2013-02-07 01:01:00,
2013-02-06 19:21:00,15.0,12.0,-100.00,ESE,108,4.0,7.0,88,0.00,,,0.00,0.000000,,2013-02-07 01:21:00,
2013-02-06 19:32:00,15.0,12.0,-100.00,ESE,108,4.0,7.0,88,0.00,,,0.00,0.000000,,2013-02-07 01:32:00,
2013-02-06 19:42:00,15.0,12.0,-100.00,ESE,108,4.0,7.0,88,0.00,,,0.00,0.000000,,2013-02-07 01:42:00,
2013-02-06 19:52:00,15.0,12.0,-100.00,ESE,108,4.0,7.0,88,0.00,,,0.00,0.000000,,2013-02-07 01:52:00,
2013-02-06 20:01:00,15.0,12.0,-100.00,ESE,108,4.0,7.0,88,0.00,,,0.00,0.000000,,2013-02-07 02:01:00,
2013-02-06 20:32:00,14.0,10.0,-100.00,East,93,4.0,8.0,84,0.00,,,0.00,0.000000,,2013-02-07 02:32:00,
2013-02-06 20:42:00,14.0,10.0,-100.00,East,93,4.0,8.0,84,0.00,,,0.00,0.000000,,2013-02-07 02:42:00,
2013-02-06 20:52:00,14.0,10.0,-100.00,East,93,4.0,8.0,84,0.00,,,0.00,0.000000,,2013-02-07 02:52:00,
2013-02-06 21:02:00,14.0,10.0,-100.00,East,93,4.0,8.0,84,0.00,,,0.00,0.000000,,2013-02-07 03:02:00,
2013-02-06 21:22:00,14.0,10.0,-100.00,ESE,102,4.0,7.0,85,0.00,,,0.00,0.000000,,2013-02-07 03:22:00,
2013-02-06 21:32:00,14.0,10.0,-100.00,ESE,102,4.0,7.0,85,0.00,,,0.00,0.000000,,2013-02-07 03:32:00,
2013-02-06 21:42:00,14.0,10.0,-100.00,ESE,102,4.0,7.0,85,0.00,,,0.00,0.000000,,2013-02-07 03:42:00,
2013-02-06 21:52:00,14.0,10.0,-100.00,ESE,102,4.0,7.0,85,0.00,,,0.00,0.000000,,2013-02-07 03:52:00,
2013-02-06 22:01:00,14.0,10.0,-100.00,ESE,102,4.0,7.0,85,0.00,,,0.00,0.000000,,2013-02-07 04:01:00,
2013-02-06 22:22:00,13.0,9.0,-100.00,ENE,76,4.0,8.0,85,0.00,,,0.00,0.000000,,2013-02-07 04:22:00,
2013-02-06 22:32:00,13.0,9.0,-100.00,ENE,76,4.0,8.0,85,0.00,,,0.00,0.000000,,2013-02-07 04:32:00,
2013-02-06 22:42:00,13.0,9.0,-100.00,ENE,76,4.0,8.0,85,0.00,,,0.00,0.000000,,2013-02-07 04:42:00,
2013-02-06 22:53:00,13.0,9.0,-100.00,ENE,76,4.0,8.0,85,0.00,,,0.00,0.000000,,2013-02-07 04:53:00,
2013-02-06 23:02:00,13.0,9.0,-100.00,ENE,76,4.0,8.0,85,0.00,,,0.00,0.000000,,2013-02-07 05:02:00,
2013-02-06 23:22:00,13.0,10.0,-100.00,ENE,74,3.0,8.0,86,0.00,,,0.00,0.000000,,2013-02-07 05:22:00,
2013-02-06 23:32:00,13.0,10.0,-100.00,ENE,74,3.0,8.0,86,0.00,,,0.00,0.000000,,2013-02-07 05:32:00,
2013-02-06 23:43:00,13.0,10.0,-100.00,ENE,74,3.0,8.0,86,0.00,,,0.00,0.000000,,2013-02-07 05:43:00,
2013-02-06 23:52:00,13.0,10.0,-100.00,ENE,74,3.0,8.0,86,0.00,,,0.00,0.000000,,2013-02-07 05:52:00,